Time,TemperatureF,DewpointF,PressureIn,WindDirection,WindDirectionDegrees,WindSpeedMPH,WindSpeedGustMPH,Humidity,HourlyPrecipIn,Conditions,Clouds,dailyrainin,SoftwareType,DateUTC
2013-08-22 00:01:00,65.8,65.2,30.09,SE,142,0.0,0.0,98,0.00,,CLR,0.00,VWS V14.01,2013-08-22 04:01:00,
2013-08-22 00:02:00,65.8,65.2,30.08,SE,142,0.0,0.0,98,0.00,,CLR,0.00,VWS V14.01,2013-08-22 04:02:00,
2013-08-22 00:04:00,65.8,65.2,30.09,SE,142,0.0,0.0,98,0.00,,CLR,0.00,VWS V14.01,2013-08-22 04:04:00,
2013-08-22 00:09:00,65.7,65.1,30.10,SE,142,0.0,0.0,98,0.00,,CLR,0.00,VWS V14.01,2013-08-22 04:09:00,
2013-08-22 00:14:00,65.7,65.2,30.09,SE,142,0.0,0.0,98,0.00,,CLR,0.00,VWS V14.01,2013-08-22 04:14:00,
2013-08-22 00:19:00,65.7,65.2,30.09,SE,142,0.0,0.0,98,0.00,,CLR,0.00,VWS V14.01,2013-08-22 04:19:00,
2013-08-22 00:24:00,65.6,65.1,30.09,SE,142,0.0,0.0,98,0.00,,CLR,0.00,VWS V14.01,2013-08-22 04:24:00,
2013-08-22 00:29:00,65.5,65.0,30.10,SE,142,0.0,0.0,98,0.00,,CLR,0.00,VWS V14.01,2013-08-22 04:29:00,
2013-08-22 00:34:00,65.4,65.0,30.09,SE,142,0.0,0.0,98,0.00,,CLR,0.00,VWS V14.01,2013-08-22 04:34:00,
2013-08-22 00:39:00,65.3,64.9,30.09,SE,142,0.0,0.0,99,0.00,,CLR,0.00,VWS V14.01,2013-08-22 04:39:00,
2013-08-22 00:44:00,65.3,65.0,30.09,SE,142,0.0,0.0,99,0.00,,CLR,0.00,VWS V14.01,2013-08-22 04:44:00,
2013-08-22 00:49:00,65.2,64.9,30.09,SE,142,0.0,0.0,99,0.00,,CLR,0.00,VWS V14.01,2013-08-22 04:49:00,
2013-08-22 00:54:00,65.2,64.9,30.09,SE,142,0.0,0.0,99,0.00,,CLR,0.00,VWS V14.01,2013-08-22 04:54:00,
2013-08-22 00:59:00,65.1,64.9,30.09,SE,142,0.0,0.0,99,0.00,,CLR,0.00,VWS V14.01,2013-08-22 04:59:00,
2013-08-22 01:04:00,65.1,64.9,30.08,SE,142,0.0,0.0,99,0.00,,,0.00,VWS V14.01,2013-08-22 05:04:00,
2013-08-22 01:09:00,65.0,64.8,30.08,SE,142,0.0,0.0,99,0.00,,,0.00,VWS V14.01,2013-08-22 05:09:00,
2013-08-22 01:14:00,64.9,64.8,30.09,SE,142,0.0,0.0,100,0.00,,,0.00,VWS V14.01,2013-08-22 05:14:00,
2013-08-22 01:19:00,64.9,64.8,30.08,SE,142,0.0,0.0,100,0.00,,,0.00,VWS V14.01,2013-08-22 05:19:00,
2013-08-22 01:24:00,64.8,64.8,30.10,SE,142,0.0,0.0,100,0.00,,,0.00,VWS V14.01,2013-08-22 05:24:00,
2013-08-22 01:29:00,64.8,64.8,30.09,SE,142,0.0,0.0,100,0.00,,,0.00,VWS V14.01,2013-08-22 05:29:00,
2013-08-22 01:35:00,64.7,64.7,30.09,SE,142,0.0,0.0,100,0.00,,,0.00,VWS V14.01,2013-08-22 05:35:00,
2013-08-22 01:40:00,64.7,64.7,30.10,SE,142,0.0,0.0,100,0.00,,,0.00,VWS V14.01,2013-08-22 05:40:00,
2013-08-22 01:45:00,64.7,64.7,30.10,SE,142,0.0,0.0,100,0.00,,,0.00,VWS V14.01,2013-08-22 05:45:00,
2013-08-22 01:50:00,64.6,64.6,30.10,SE,142,0.0,0.0,100,0.00,,,0.00,VWS V14.01,2013-08-22 05:50:00,
2013-08-22 01:55:00,64.6,64.6,30.10,SE,142,0.0,0.0,100,0.00,,,0.00,VWS V14.01,2013-08-22 05:55:00,
2013-08-22 02:00:00,64.5,64.5,30.10,SE,142,0.0,0.0,100,0.00,,,0.00,VWS V14.01,2013-08-22 06:00:00,
2013-08-22 02:05:00,64.5,64.5,30.11,SE,142,0.0,0.0,100,0.00,,,0.00,VWS V14.01,2013-08-22 06:05:00,
2013-08-22 02:10:00,64.5,64.5,30.10,SE,142,0.0,0.0,100,0.00,,,0.00,VWS V14.01,2013-08-22 06:10:00,
2013-08-22 02:15:00,64.5,64.5,30.10,SE,142,0.0,0.0,100,0.00,,,0.00,VWS V14.01,2013-08-22 06:15:00,
2013-08-22 02:20:00,64.4,64.4,30.10,SE,142,0.0,0.0,100,0.00,,,0.00,VWS V14.01,2013-08-22 06:20:00,
2013-08-22 02:25:00,64.5,64.5,30.10,SE,142,0.0,0.0,100,0.00,,,0.00,VWS V14.01,2013-08-22 06:25:00,
2013-08-22 02:30:00,64.5,64.5,30.11,SE,142,0.0,0.0,100,0.00,,,0.00,VWS V14.01,2013-08-22 06:30:00,
2013-08-22 02:35:00,64.5,64.5,30.11,SE,142,0.0,0.0,100,0.00,,,0.00,VWS V14.01,2013-08-22 06:35:00,
2013-08-22 02:40:00,64.5,64.5,30.10,SE,142,0.0,0.0,100,0.00,,,0.00,VWS V14.01,2013-08-22 06:40:00,
2013-08-22 02:45:00,64.6,64.6,30.09,SE,142,0.0,0.0,100,0.00,,,0.00,VWS V14.01,2013-08-22 06:45:00,
2013-08-22 02:51:00,64.6,64.6,30.09,SE,142,0.0,0.0,100,0.00,,,0.00,VWS V14.01,2013-08-22 06:51:00,
2013-08-22 02:56:00,64.6,64.6,30.10,SE,142,0.0,0.0,100,0.00,,,0.00,VWS V14.01,2013-08-22 06:56:00,
2013-08-22 03:01:00,64.6,64.6,30.09,SE,142,0.0,0.0,100,0.00,,,0.00,VWS V14.01,2013-08-22 07:01:00,
2013-08-22 03:06:00,64.6,64.6,30.09,SE,142,0.0,0.0,100,0.00,,,0.00,VWS V14.01,2013-08-22 07:06:00,
2013-08-22 03:11:00,64.6,64.6,30.09,SE,142,0.0,0.0,100,0.00,,,0.00,VWS V14.01,2013-08-22 07:11:00,
2013-08-22 03:16:00,64.6,64.6,30.09,SE,142,0.0,0.0,100,0.00,,,0.00,VWS V14.01,2013-08-22 07:16:00,
2013-08-22 03:21:00,64.6,64.6,30.09,SE,142,0.0,0.0,100,0.00,,,0.00,VWS V14.01,2013-08-22 07:21:00,
2013-08-22 03:26:00,64.6,64.6,30.09,SE,142,0.0,0.0,100,0.00,,,0.00,VWS V14.01,2013-08-22 07:26:00,
2013-08-22 03:31:00,64.6,64.6,30.08,SE,142,0.0,0.0,100,0.00,,,0.00,VWS V14.01,2013-08-22 07:31:00,
2013-08-22 03:36:00,64.6,64.6,30.08,SE,142,0.0,0.0,100,0.00,,,0.00,VWS V14.01,2013-08-22 07:36:00,
2013-08-22 03:41:00,64.6,64.6,30.08,SE,142,0.0,0.0,100,0.00,,,0.00,VWS V14.01,2013-08-22 07:41:00,
2013-08-22 03:46:00,64.6,64.6,30.09,SE,142,0.0,0.0,100,0.00,,,0.00,VWS V14.01,2013-08-22 07:46:00,
2013-08-22 03:51:00,64.6,64.6,30.09,SE,142,0.0,0.0,100,0.00,,,0.00,VWS V14.01,2013-08-22 07:51:00,
2013-08-22 03:56:00,64.6,64.6,30.08,SE,142,0.0,0.0,100,0.00,,,0.00,VWS V14.01,2013-08-22 07:56:00,
2013-08-22 04:01:00,64.5,64.5,30.08,SE,142,0.0,0.0,100,0.00,,,0.00,VWS V14.01,2013-08-22 08:01:00,
2013-08-22 04:06:00,64.4,64.4,30.08,SE,142,0.0,0.0,100,0.00,,,0.00,VWS V14.01,2013-08-22 08:06:00,
2013-08-22 04:11:00,64.5,64.5,30.08,SE,142,0.0,0.0,100,0.00,,,0.00,VWS V14.01,2013-08-22 08:11:00,
2013-08-22 04:16:00,64.5,64.5,30.08,SE,142,0.0,0.0,100,0.00,,,0.00,VWS V14.01,2013-08-22 08:16:00,
2013-08-22 04:22:00,64.4,64.4,30.07,SE,142,0.0,0.0,100,0.00,,,0.00,VWS V14.01,2013-08-22 08:22:00,
2013-08-22 04:27:00,64.4,64.4,30.08,SE,142,0.0,0.0,100,0.00,,,0.00,VWS V14.01,2013-08-22 08:27:00,
2013-08-22 04:32:00,64.4,64.4,30.07,SE,142,0.0,0.0,100,0.00,,,0.00,VWS V14.01,2013-08-22 08:32:00,
2013-08-22 04:37:00,64.4,64.4,30.08,SE,142,0.0,0.0,100,0.00,,,0.00,VWS V14.01,2013-08-22 08:37:00,
2013-08-22 04:42:00,64.4,64.4,30.08,SE,142,0.0,0.0,100,0.00,,,0.00,VWS V14.01,2013-08-22 08:42:00,
2013-08-22 04:47:00,64.4,64.4,30.07,SE,142,0.0,0.0,100,0.00,,,0.00,VWS V14.01,2013-08-22 08:47:00,
2013-08-22 04:52:00,64.4,64.4,30.07,SE,142,0.0,0.0,100,0.00,,,0.00,VWS V14.01,2013-08-22 08:52:00,
2013-08-22 04:57:00,64.5,64.5,30.08,SE,142,0.0,0.0,100,0.00,,,0.00,VWS V14.01,2013-08-22 08:57:00,
2013-08-22 05:02:00,64.6,64.6,30.08,SE,142,0.0,0.0,100,0.00,,,0.00,VWS V14.01,2013-08-22 09:02:00,
2013-08-22 05:07:00,64.7,64.7,30.07,SE,142,0.0,0.0,100,0.00,,,0.00,VWS V14.01,2013-08-22 09:07:00,
2013-08-22 05:12:00,64.7,64.7,30.06,SE,142,0.0,0.0,100,0.00,,,0.00,VWS V14.01,2013-08-22 09:12:00,
2013-08-22 05:17:00,64.8,64.8,30.06,SE,142,0.0,0.0,100,0.00,,,0.00,VWS V14.01,2013-08-22 09:17:00,
2013-08-22 05:22:00,64.9,64.9,30.06,SE,142,0.0,0.0,100,0.00,,,0.00,VWS V14.01,2013-08-22 09:22:00,
2013-08-22 05:27:00,65.1,65.1,30.06,SE,142,0.0,0.0,100,0.00,,,0.00,VWS V14.01,2013-08-22 09:27:00,
2013-08-22 05:32:00,65.1,65.1,30.06,SE,142,0.0,0.0,100,0.00,,,0.00,VWS V14.01,2013-08-22 09:32:00,
2013-08-22 05:37:00,65.2,65.2,30.05,SE,142,0.0,0.0,100,0.00,,,0.00,VWS V14.01,2013-08-22 09:37:00,
2013-08-22 05:42:00,65.3,65.3,30.05,SE,142,0.0,0.0,100,0.00,,,0.00,VWS V14.01,2013-08-22 09:42:00,
2013-08-22 05:47:00,65.4,65.4,30.06,SE,142,0.0,0.0,100,0.00,,,0.00,VWS V14.01,2013-08-22 09:47:00,
2013-08-22 05:53:00,65.5,65.5,30.06,SE,142,0.0,0.0,100,0.00,,,0.00,VWS V14.01,2013-08-22 09:53:00,
2013-08-22 05:58:00,65.5,65.5,30.06,SE,142,0.0,0.0,100,0.00,,,0.00,VWS V14.01,2013-08-22 09:58:00,
2013-08-22 06:03:00,65.6,65.6,30.05,SE,142,0.0,0.0,100,0.00,,-RA,0.00,VWS V14.01,2013-08-22 10:03:00,
2013-08-22 06:08:00,65.7,65.7,30.05,SE,142,0.0,0.0,100,0.00,,-RA,0.00,VWS V14.01,2013-08-22 10:08:00,
2013-08-22 06:13:00,65.8,65.8,30.05,SE,142,0.0,0.0,100,0.00,,-RA,0.00,VWS V14.01,2013-08-22 10:13:00,
2013-08-22 06:18:00,65.8,65.8,30.06,SE,142,0.0,0.0,100,0.00,,-RA,0.00,VWS V14.01,2013-08-22 10:18:00,
2013-08-22 06:23:00,65.9,65.9,30.05,SE,142,0.0,0.0,100,0.00,,-RA,0.00,VWS V14.01,2013-08-22 10:23:00,
2013-08-22 06:28:00,65.9,65.9,30.05,SE,142,0.0,0.0,100,0.00,,-RA,0.00,VWS V14.01,2013-08-22 10:28:00,
2013-08-22 06:33:00,66.0,66.0,30.05,SE,142,0.0,0.0,100,0.00,,-RA,0.00,VWS V14.01,2013-08-22 10:33:00,
2013-08-22 06:38:00,66.0,66.0,30.06,SE,142,0.0,0.0,100,0.00,,-RA,0.00,VWS V14.01,2013-08-22 10:38:00,
2013-08-22 06:43:00,66.1,66.1,30.06,SE,142,0.0,0.0,100,0.00,,-RA,0.00,VWS V14.01,2013-08-22 10:43:00,
2013-08-22 06:48:00,66.1,66.1,30.05,SE,142,0.0,0.0,100,0.00,,-RA,0.00,VWS V14.01,2013-08-22 10:48:00,
2013-08-22 08:28:00,70.1,70.1,30.06,SE,142,0.0,0.0,100,0.00,,,0.00,VWS V14.01,2013-08-22 12:28:00,
2013-08-22 08:33:00,70.5,70.5,30.05,SE,142,0.0,0.0,100,0.00,,,0.00,VWS V14.01,2013-08-22 12:33:00,
2013-08-22 08:38:00,71.0,71.0,30.04,SE,142,0.0,0.0,100,0.00,,,0.00,VWS V14.01,2013-08-22 12:38:00,
2013-08-22 08:43:00,71.2,71.2,30.04,SE,142,0.0,0.0,100,0.00,,,0.00,VWS V14.01,2013-08-22 12:43:00,
2013-08-22 08:48:00,71.6,71.6,30.05,SE,142,0.0,0.0,100,0.00,,,0.00,VWS V14.01,2013-08-22 12:48:00,
2013-08-22 08:53:00,72.0,72.0,30.05,SE,142,0.0,0.0,100,0.00,,,0.00,VWS V14.01,2013-08-22 12:53:00,
2013-08-22 08:58:00,72.3,72.3,30.04,SE,142,0.0,0.0,100,0.00,,,0.00,VWS V14.01,2013-08-22 12:58:00,
2013-08-22 09:00:00,72.5,72.5,30.05,SE,142,0.0,0.0,100,0.00,,,0.00,VWS V14.01,2013-08-22 13:00:00,
2013-08-22 09:05:00,72.7,72.7,30.05,SE,142,0.0,0.0,100,0.00,,,0.00,VWS V14.01,2013-08-22 13:05:00,
2013-08-22 09:10:00,72.8,72.8,30.04,SE,142,0.0,0.0,100,0.00,,,0.00,VWS V14.01,2013-08-22 13:10:00,
2013-08-22 09:15:00,72.8,72.8,30.05,SE,142,0.0,0.0,100,0.00,,,0.00,VWS V14.01,2013-08-22 13:15:00,
2013-08-22 09:20:00,72.9,72.9,30.06,SSW,208,0.0,4.9,100,0.17,,,0.17,VWS V14.01,2013-08-22 13:20:00,
2013-08-22 09:25:00,72.9,72.9,30.07,SSW,208,0.0,0.0,100,0.44,,,0.44,VWS V14.01,2013-08-22 13:25:00,
2013-08-22 09:30:00,72.7,72.7,30.07,SSW,208,0.0,0.0,100,0.56,,,0.56,VWS V14.01,2013-08-22 13:30:00,
2013-08-22 09:36:00,72.3,72.3,30.05,South,170,0.0,4.8,100,0.61,,,0.61,VWS V14.01,2013-08-22 13:36:00,
2013-08-22 09:41:00,72.1,72.1,30.05,South,170,0.0,4.8,100,0.63,,,0.63,VWS V14.01,2013-08-22 13:41:00,
2013-08-22 09:46:00,71.9,71.9,30.06,South,170,0.0,0.0,100,0.67,,,0.67,VWS V14.01,2013-08-22 13:46:00,
2013-08-22 09:51:00,71.7,71.7,30.05,South,170,0.0,0.0,100,0.69,,,0.69,VWS V14.01,2013-08-22 13:51:00,
2013-08-22 09:56:00,71.5,71.5,30.05,South,170,0.0,0.0,100,0.70,,,0.70,VWS V14.01,2013-08-22 13:56:00,
2013-08-22 10:01:00,71.4,71.4,30.05,South,170,0.0,0.0,100,0.70,,RA,0.70,VWS V14.01,2013-08-22 14:01:00,
2013-08-22 10:06:00,71.4,71.4,30.05,South,170,0.0,0.0,100,0.71,,RA,0.71,VWS V14.01,2013-08-22 14:06:00,
2013-08-22 10:11:00,71.4,71.4,30.04,South,170,0.0,0.0,100,0.71,,RA,0.71,VWS V14.01,2013-08-22 14:11:00,
2013-08-22 10:16:00,71.3,71.3,30.03,South,170,0.0,0.0,100,0.72,,RA,0.72,VWS V14.01,2013-08-22 14:16:00,
2013-08-22 10:21:00,71.2,71.2,30.04,South,170,0.0,0.0,100,0.72,,RA,0.72,VWS V14.01,2013-08-22 14:21:00,
2013-08-22 10:26:00,71.3,71.3,30.04,South,170,0.0,0.0,100,0.39,,RA,0.72,VWS V14.01,2013-08-22 14:26:00,
2013-08-22 10:31:00,71.4,71.4,30.07,South,170,0.0,0.0,100,0.39,,RA,0.72,VWS V14.01,2013-08-22 14:31:00,
2013-08-22 10:36:00,71.4,71.4,30.07,South,170,0.0,0.0,100,0.12,,RA,0.72,VWS V14.01,2013-08-22 14:36:00,
2013-08-22 10:41:00,70.8,70.8,30.07,South,170,0.0,3.3,100,0.12,,RA,0.72,VWS V14.01,2013-08-22 14:41:00,
2013-08-22 10:46:00,70.9,70.9,30.07,South,170,0.0,0.0,100,0.08,,RA,0.72,VWS V14.01,2013-08-22 14:46:00,
2013-08-22 10:51:00,70.8,70.8,30.06,South,170,0.0,0.0,100,0.08,,RA,0.72,VWS V14.01,2013-08-22 14:51:00,
2013-08-22 10:56:00,70.9,70.9,30.06,South,170,0.0,0.0,100,0.03,,RA,0.72,VWS V14.01,2013-08-22 14:56:00,
2013-08-22 11:02:00,70.9,70.9,30.06,South,170,0.0,0.0,100,0.03,,BKN095,0.72,VWS V14.01,2013-08-22 15:02:00,
2013-08-22 11:07:00,71.0,71.0,30.06,South,170,0.0,0.0,100,0.02,,BKN095,0.72,VWS V14.01,2013-08-22 15:07:00,
2013-08-22 11:12:00,71.2,71.2,30.06,South,170,0.0,0.0,100,0.02,,BKN095,0.72,VWS V14.01,2013-08-22 15:12:00,
2013-08-22 11:17:00,71.2,71.2,30.06,South,170,0.0,0.0,100,0.01,,BKN095,0.72,VWS V14.01,2013-08-22 15:17:00,
2013-08-22 11:22:00,71.3,71.3,30.05,South,170,0.0,0.0,100,0.01,,BKN095,0.72,VWS V14.01,2013-08-22 15:22:00,
2013-08-22 11:27:00,71.2,71.2,30.05,South,170,0.0,0.0,100,0.02,,BKN095,0.74,VWS V14.01,2013-08-22 15:27:00,
2013-08-22 11:32:00,71.3,71.3,30.07,South,170,0.0,0.0,100,0.06,,BKN095,0.78,VWS V14.01,2013-08-22 15:32:00,
2013-08-22 11:37:00,71.2,71.2,30.06,South,170,0.0,0.0,100,0.09,,BKN095,0.81,VWS V14.01,2013-08-22 15:37:00,
2013-08-22 11:42:00,71.3,71.3,30.06,South,170,0.0,0.0,100,0.09,,BKN095,0.81,VWS V14.01,2013-08-22 15:42:00,
2013-08-22 11:47:00,71.3,71.3,30.05,South,170,0.0,0.0,100,0.09,,BKN095,0.81,VWS V14.01,2013-08-22 15:47:00,
2013-08-22 11:52:00,71.5,71.5,30.05,South,170,0.0,0.0,100,0.09,,BKN095,0.81,VWS V14.01,2013-08-22 15:52:00,
2013-08-22 11:57:00,71.6,71.6,30.06,South,170,0.0,0.0,100,0.09,,BKN095,0.81,VWS V14.01,2013-08-22 15:57:00,
2013-08-22 12:02:00,71.8,71.8,30.06,South,170,0.0,0.0,100,0.09,,BKN110,0.81,VWS V14.01,2013-08-22 16:02:00,
2013-08-22 12:07:00,71.8,71.8,30.05,South,170,0.0,0.0,100,0.10,,BKN110,0.82,VWS V14.01,2013-08-22 16:07:00,
2013-08-22 12:12:00,71.8,71.8,30.05,South,170,0.0,0.0,100,0.10,,BKN110,0.82,VWS V14.01,2013-08-22 16:12:00,
2013-08-22 12:17:00,72.0,72.0,30.05,South,170,0.0,0.0,100,0.10,,BKN110,0.82,VWS V14.01,2013-08-22 16:17:00,
2013-08-22 12:22:00,72.1,72.1,30.05,South,170,0.0,0.0,100,0.10,,BKN110,0.82,VWS V14.01,2013-08-22 16:22:00,
2013-08-22 12:27:00,72.3,72.3,30.05,South,170,0.0,0.0,100,0.09,,BKN110,0.82,VWS V14.01,2013-08-22 16:27:00,
2013-08-22 12:33:00,72.3,72.3,30.04,South,170,0.0,0.0,100,0.03,,BKN110,0.82,VWS V14.01,2013-08-22 16:33:00,
2013-08-22 12:38:00,72.6,72.6,30.04,South,170,0.0,0.0,100,0.03,,BKN110,0.82,VWS V14.01,2013-08-22 16:38:00,
2013-08-22 12:43:00,72.6,72.6,30.03,South,170,0.0,0.0,100,0.01,,BKN110,0.82,VWS V14.01,2013-08-22 16:43:00,
2013-08-22 12:48:00,72.7,72.7,30.04,South,170,0.0,0.0,100,0.01,,BKN110,0.82,VWS V14.01,2013-08-22 16:48:00,
2013-08-22 12:53:00,72.8,72.8,30.03,South,170,0.0,0.0,100,0.01,,BKN110,0.82,VWS V14.01,2013-08-22 16:53:00,
2013-08-22 12:58:00,72.7,72.7,30.02,South,170,0.0,0.0,100,0.01,,BKN110,0.82,VWS V14.01,2013-08-22 16:58:00,
2013-08-22 13:03:00,72.8,72.8,30.03,South,170,0.0,0.0,100,0.01,,BKN110,0.82,VWS V14.01,2013-08-22 17:03:00,
2013-08-22 13:08:00,73.1,73.1,30.02,South,170,0.0,0.0,100,0.01,,BKN110,0.82,VWS V14.01,2013-08-22 17:08:00,
2013-08-22 13:13:00,73.4,73.4,30.02,South,170,0.0,0.0,100,0.00,,BKN110,0.82,VWS V14.01,2013-08-22 17:13:00,
2013-08-22 13:18:00,73.3,73.3,30.01,South,170,0.0,0.0,100,0.00,,BKN110,0.82,VWS V14.01,2013-08-22 17:18:00,
2013-08-22 13:23:00,73.4,73.4,30.01,South,170,0.0,0.0,100,0.00,,BKN110,0.82,VWS V14.01,2013-08-22 17:23:00,
2013-08-22 13:28:00,73.7,73.7,30.01,South,170,0.0,0.0,100,0.00,,BKN110,0.82,VWS V14.01,2013-08-22 17:28:00,
2013-08-22 13:33:00,73.7,73.7,30.01,South,170,0.0,0.0,100,0.00,,BKN110,0.82,VWS V14.01,2013-08-22 17:33:00,
2013-08-22 13:38:00,73.8,73.8,30.01,South,170,0.0,0.0,100,0.00,,BKN110,0.82,VWS V14.01,2013-08-22 17:38:00,
2013-08-22 13:43:00,73.9,73.9,30.00,South,170,0.0,0.0,100,0.00,,BKN110,0.82,VWS V14.01,2013-08-22 17:43:00,
2013-08-22 13:48:00,74.1,74.1,30.00,South,170,0.0,0.0,100,0.00,,BKN110,0.82,VWS V14.01,2013-08-22 17:48:00,
2013-08-22 13:53:00,74.1,74.1,30.00,South,170,0.0,0.0,100,0.00,,BKN110,0.82,VWS V14.01,2013-08-22 17:53:00,
2013-08-22 13:58:00,74.0,74.0,30.00,West,263,0.0,2.9,100,0.00,,BKN110,0.82,VWS V14.01,2013-08-22 17:58:00,
2013-08-22 14:03:00,74.2,74.2,30.01,West,263,0.0,0.0,100,0.00,,BKN110,0.82,VWS V14.01,2013-08-22 18:03:00,
2013-08-22 14:08:00,74.4,74.4,29.99,West,263,0.0,0.0,100,0.00,,BKN110,0.82,VWS V14.01,2013-08-22 18:08:00,
2013-08-22 14:14:00,74.5,74.5,29.99,West,263,0.0,0.0,100,0.00,,BKN110,0.82,VWS V14.01,2013-08-22 18:14:00,
2013-08-22 14:19:00,74.4,74.4,30.00,West,263,0.0,0.0,100,0.00,,BKN110,0.82,VWS V14.01,2013-08-22 18:19:00,
2013-08-22 14:24:00,74.4,74.4,30.00,West,263,0.0,0.0,100,0.00,,BKN110,0.82,VWS V14.01,2013-08-22 18:24:00,
2013-08-22 14:29:00,74.4,74.4,30.00,West,263,0.0,0.0,100,0.00,,BKN110,0.82,VWS V14.01,2013-08-22 18:29:00,
2013-08-22 14:34:00,74.5,74.5,29.99,West,263,0.0,0.0,100,0.00,,BKN110,0.82,VWS V14.01,2013-08-22 18:34:00,
2013-08-22 14:39:00,74.6,74.6,29.98,West,263,0.0,0.0,100,0.00,,BKN110,0.82,VWS V14.01,2013-08-22 18:39:00,
2013-08-22 14:44:00,74.7,74.7,29.99,West,263,0.0,0.0,100,0.00,,BKN110,0.82,VWS V14.01,2013-08-22 18:44:00,
2013-08-22 14:49:00,74.7,74.7,29.99,West,263,0.0,0.0,100,0.00,,BKN110,0.82,VWS V14.01,2013-08-22 18:49:00,
2013-08-22 14:54:00,74.4,74.4,29.98,West,263,0.0,0.0,100,0.00,,BKN110,0.82,VWS V14.01,2013-08-22 18:54:00,
2013-08-22 14:59:00,74.6,74.6,29.97,West,263,0.0,0.0,100,0.00,,BKN110,0.82,VWS V14.01,2013-08-22 18:59:00,
2013-08-22 15:04:00,74.6,74.6,29.97,West,263,0.0,0.0,100,0.00,,SCT014,0.82,VWS V14.01,2013-08-22 19:04:00,
2013-08-22 15:09:00,74.6,74.6,29.98,West,263,0.0,0.0,100,0.00,,SCT014,0.82,VWS V14.01,2013-08-22 19:09:00,
2013-08-22 15:14:00,74.5,74.5,29.97,West,263,0.0,0.0,100,0.00,,SCT014,0.82,VWS V14.01,2013-08-22 19:14:00,
2013-08-22 15:19:00,74.2,74.2,29.96,West,263,0.0,0.0,100,0.00,,SCT014,0.82,VWS V14.01,2013-08-22 19:19:00,
2013-08-22 15:24:00,73.9,73.9,29.95,West,263,0.0,0.0,100,0.00,,SCT014,0.82,VWS V14.01,2013-08-22 19:24:00,
2013-08-22 15:29:00,73.5,73.5,29.95,West,263,0.0,0.0,100,0.00,,SCT014,0.82,VWS V14.01,2013-08-22 19:29:00,
2013-08-22 15:34:00,73.7,73.7,29.96,West,263,0.0,0.0,100,0.00,,SCT014,0.82,VWS V14.01,2013-08-22 19:34:00,
2013-08-22 15:39:00,73.8,73.8,29.96,West,263,0.0,0.0,100,0.00,,SCT014,0.82,VWS V14.01,2013-08-22 19:39:00,
2013-08-22 15:44:00,73.7,73.7,29.96,West,263,0.0,0.0,100,0.00,,SCT014,0.82,VWS V14.01,2013-08-22 19:44:00,
2013-08-22 15:49:00,73.9,73.9,29.94,West,263,0.0,0.0,100,0.00,,SCT014,0.82,VWS V14.01,2013-08-22 19:49:00,
2013-08-22 15:54:00,73.8,73.8,29.95,West,263,0.0,0.0,100,0.00,,SCT014,0.82,VWS V14.01,2013-08-22 19:54:00,
2013-08-22 16:00:00,73.9,73.9,29.95,West,263,0.0,0.0,100,0.00,,SCT014,0.82,VWS V14.01,2013-08-22 20:00:00,
2013-08-22 16:05:00,73.7,73.7,29.96,SSW,207,0.0,4.3,100,0.00,,FEW013,0.82,VWS V14.01,2013-08-22 20:05:00,
2013-08-22 16:10:00,73.6,73.6,29.95,SSW,207,0.0,0.0,100,0.00,,FEW013,0.82,VWS V14.01,2013-08-22 20:10:00,
2013-08-22 16:15:00,73.7,73.7,29.94,SSW,207,0.0,0.0,100,0.00,,FEW013,0.82,VWS V14.01,2013-08-22 20:15:00,
2013-08-22 16:20:00,73.4,73.4,29.94,SW,231,0.0,4.6,100,0.00,,FEW013,0.82,VWS V14.01,2013-08-22 20:20:00,
2013-08-22 16:25:00,73.5,73.5,29.94,SW,231,0.0,3.0,100,0.00,,FEW013,0.82,VWS V14.01,2013-08-22 20:25:00,
2013-08-22 16:30:00,73.7,73.7,29.93,SW,231,0.0,3.0,100,0.00,,FEW013,0.82,VWS V14.01,2013-08-22 20:30:00,
2013-08-22 16:35:00,74.0,74.0,29.94,SW,231,0.0,0.0,100,0.00,,FEW013,0.82,VWS V14.01,2013-08-22 20:35:00,
2013-08-22 16:40:00,74.5,74.5,29.94,SW,231,0.0,0.0,100,0.00,,FEW013,0.82,VWS V14.01,2013-08-22 20:40:00,
2013-08-22 16:45:00,74.4,74.4,29.94,SW,231,0.0,0.0,100,0.00,,FEW013,0.82,VWS V14.01,2013-08-22 20:45:00,
2013-08-22 16:51:00,74.2,74.1,29.93,SW,231,0.0,0.0,100,0.00,,FEW013,0.82,VWS V14.01,2013-08-22 20:51:00,
2013-08-22 16:56:00,74.1,73.8,29.93,SW,231,0.0,0.0,99,0.00,,FEW013,0.82,VWS V14.01,2013-08-22 20:56:00,
2013-08-22 17:01:00,74.3,74.0,29.93,SW,231,0.0,0.0,99,0.00,,FEW013,0.82,VWS V14.01,2013-08-22 21:01:00,
2013-08-22 17:06:00,74.5,74.3,29.93,SW,231,0.0,0.0,99,0.00,,FEW013,0.82,VWS V14.01,2013-08-22 21:06:00,
2013-08-22 17:11:00,74.4,74.1,29.93,SW,231,0.0,0.0,99,0.00,,FEW013,0.82,VWS V14.01,2013-08-22 21:11:00,
2013-08-22 17:16:00,74.3,73.9,29.93,WSW,240,0.0,3.4,99,0.00,,FEW013,0.82,VWS V14.01,2013-08-22 21:16:00,
2013-08-22 17:21:00,74.4,73.9,29.93,WSW,239,0.0,0.0,98,0.00,,FEW013,0.82,VWS V14.01,2013-08-22 21:21:00,
2013-08-22 17:26:00,74.6,73.9,29.93,WSW,239,0.0,0.0,98,0.00,,FEW013,0.82,VWS V14.01,2013-08-22 21:26:00,
2013-08-22 17:31:00,74.5,73.6,29.92,WSW,239,0.0,0.0,97,0.00,,FEW013,0.82,VWS V14.01,2013-08-22 21:31:00,
2013-08-22 17:36:00,74.6,73.6,29.92,WSW,239,0.0,0.0,97,0.00,,FEW013,0.82,VWS V14.01,2013-08-22 21:36:00,
2013-08-22 17:41:00,74.7,73.8,29.91,WSW,239,0.0,0.0,97,0.00,,FEW013,0.82,VWS V14.01,2013-08-22 21:41:00,
2013-08-22 17:46:00,74.5,73.4,29.92,SSW,212,0.0,4.5,96,0.00,,FEW013,0.82,VWS V14.01,2013-08-22 21:46:00,
2013-08-22 17:51:00,74.4,73.2,29.92,SSW,212,0.0,0.0,96,0.00,,FEW013,0.82,VWS V14.01,2013-08-22 21:51:00,
2013-08-22 17:56:00,74.4,73.3,29.92,SSW,212,0.0,0.0,96,0.00,,FEW013,0.82,VWS V14.01,2013-08-22 21:56:00,
2013-08-22 18:01:00,74.1,72.9,29.92,SSW,212,0.0,0.0,96,0.00,,SKC,0.82,VWS V14.01,2013-08-22 22:01:00,
2013-08-22 18:06:00,74.3,73.2,29.92,SSW,212,0.0,0.0,96,0.00,,SKC,0.82,VWS V14.01,2013-08-22 22:06:00,
2013-08-22 18:12:00,74.1,73.1,29.92,SSW,212,0.0,0.0,96,0.00,,SKC,0.82,VWS V14.01,2013-08-22 22:12:00,
2013-08-22 18:17:00,74.1,73.1,29.92,SSW,212,0.0,0.0,97,0.00,,SKC,0.82,VWS V14.01,2013-08-22 22:17:00,
2013-08-22 18:22:00,74.0,73.0,29.91,SSW,212,0.0,0.0,97,0.00,,SKC,0.82,VWS V14.01,2013-08-22 22:22:00,
2013-08-22 18:27:00,73.8,72.9,29.90,SSW,212,0.0,0.0,97,0.00,,SKC,0.82,VWS V14.01,2013-08-22 22:27:00,
2013-08-22 18:32:00,73.9,73.1,29.91,SSW,212,0.0,0.0,97,0.00,,SKC,0.82,VWS V14.01,2013-08-22 22:32:00,
2013-08-22 18:37:00,73.8,73.0,29.91,SSW,212,0.0,0.0,97,0.00,,SKC,0.82,VWS V14.01,2013-08-22 22:37:00,
2013-08-22 18:42:00,73.5,72.8,29.92,SSW,212,0.0,0.0,98,0.00,,SKC,0.82,VWS V14.01,2013-08-22 22:42:00,
2013-08-22 18:47:00,73.4,72.7,29.92,SSW,212,0.0,0.0,98,0.00,,SKC,0.82,VWS V14.01,2013-08-22 22:47:00,
2013-08-22 18:52:00,73.5,73.0,29.92,SSW,212,0.0,0.0,98,0.00,,SKC,0.82,VWS V14.01,2013-08-22 22:52:00,
2013-08-22 18:57:00,73.3,72.8,29.92,SSW,212,0.0,0.0,98,0.00,,SKC,0.82,VWS V14.01,2013-08-22 22:57:00,
2013-08-22 19:02:00,73.2,72.8,29.92,SSW,212,0.0,0.0,99,0.00,,SKC,0.82,VWS V14.01,2013-08-22 23:02:00,
2013-08-22 19:07:00,73.1,72.8,29.92,SSW,212,0.0,0.0,99,0.00,,SKC,0.82,VWS V14.01,2013-08-22 23:07:00,
2013-08-22 19:12:00,73.0,72.7,29.92,SSW,212,0.0,0.0,99,0.00,,SKC,0.82,VWS V14.01,2013-08-22 23:12:00,
2013-08-22 19:17:00,72.9,72.7,29.92,SSW,212,0.0,0.0,99,0.00,,SKC,0.82,VWS V14.01,2013-08-22 23:17:00,
2013-08-22 19:22:00,72.7,72.5,29.92,SSW,212,0.0,0.0,99,0.00,,SKC,0.82,VWS V14.01,2013-08-22 23:22:00,
2013-08-22 19:27:00,72.6,72.5,29.91,SSW,212,0.0,0.0,100,0.00,,SKC,0.82,VWS V14.01,2013-08-22 23:27:00,
2013-08-22 19:32:00,72.6,72.5,29.92,SSW,212,0.0,0.0,100,0.00,,SKC,0.82,VWS V14.01,2013-08-22 23:32:00,
2013-08-22 19:37:00,72.3,72.2,29.91,SSW,212,0.0,0.0,100,0.00,,SKC,0.82,VWS V14.01,2013-08-22 23:37:00,
2013-08-22 19:42:00,72.0,72.0,29.91,SSW,212,0.0,0.0,100,0.00,,SKC,0.82,VWS V14.01,2013-08-22 23:42:00,
2013-08-22 19:47:00,71.9,71.9,29.91,SSW,212,0.0,0.0,100,0.00,,SKC,0.82,VWS V14.01,2013-08-22 23:47:00,
2013-08-22 19:52:00,71.7,71.7,29.91,SSW,212,0.0,0.0,100,0.00,,SKC,0.82,VWS V14.01,2013-08-22 23:52:00,
2013-08-22 19:57:00,71.5,71.5,29.92,SSW,212,0.0,0.0,100,0.00,,SKC,0.82,VWS V14.01,2013-08-22 23:57:00,
2013-08-22 20:03:00,71.4,71.4,29.91,SSW,212,0.0,0.0,100,0.00,,SKC,0.82,VWS V14.01,2013-08-23 00:03:00,
2013-08-22 20:08:00,71.2,71.2,29.91,SSW,212,0.0,0.0,100,0.00,,SKC,0.82,VWS V14.01,2013-08-23 00:08:00,
2013-08-22 20:13:00,71.0,71.0,29.90,SSW,212,0.0,0.0,100,0.00,,SKC,0.82,VWS V14.01,2013-08-23 00:13:00,
2013-08-22 20:18:00,70.8,70.8,29.91,SSW,212,0.0,0.0,100,0.00,,SKC,0.82,VWS V14.01,2013-08-23 00:18:00,
2013-08-22 20:23:00,70.7,70.7,29.92,SSW,212,0.0,0.0,100,0.00,,SKC,0.82,VWS V14.01,2013-08-23 00:23:00,
2013-08-22 20:28:00,70.5,70.5,29.91,SSW,212,0.0,0.0,100,0.00,,SKC,0.82,VWS V14.01,2013-08-23 00:28:00,
2013-08-22 20:33:00,70.5,70.5,29.91,SSW,212,0.0,0.0,100,0.00,,SKC,0.82,VWS V14.01,2013-08-23 00:33:00,
2013-08-22 20:38:00,70.2,70.2,29.92,SSW,212,0.0,0.0,100,0.00,,SKC,0.82,VWS V14.01,2013-08-23 00:38:00,
2013-08-22 20:43:00,70.2,70.2,29.92,SSW,212,0.0,0.0,100,0.00,,SKC,0.82,VWS V14.01,2013-08-23 00:43:00,
2013-08-22 20:48:00,70.0,70.0,29.92,SSW,212,0.0,0.0,100,0.00,,SKC,0.82,VWS V14.01,2013-08-23 00:48:00,
2013-08-22 20:53:00,69.8,69.8,29.92,SSW,212,0.0,0.0,100,0.00,,SKC,0.82,VWS V14.01,2013-08-23 00:53:00,
2013-08-22 20:58:00,69.7,69.7,29.92,SSW,212,0.0,0.0,100,0.00,,SKC,0.82,VWS V14.01,2013-08-23 00:58:00,
2013-08-22 21:03:00,69.5,69.5,29.92,SSW,212,0.0,0.0,100,0.00,,SKC,0.82,VWS V14.01,2013-08-23 01:03:00,
2013-08-22 21:08:00,69.4,69.4,29.93,SSW,212,0.0,0.0,100,0.00,,SKC,0.82,VWS V14.01,2013-08-23 01:08:00,
2013-08-22 21:13:00,69.5,69.5,29.93,SSW,212,0.0,0.0,100,0.00,,SKC,0.82,VWS V14.01,2013-08-23 01:13:00,
2013-08-22 21:18:00,69.3,69.3,29.93,SSW,212,0.0,0.0,100,0.00,,SKC,0.82,VWS V14.01,2013-08-23 01:18:00,
2013-08-22 21:23:00,69.2,69.2,29.92,SSW,212,0.0,0.0,100,0.00,,SKC,0.82,VWS V14.01,2013-08-23 01:23:00,
2013-08-22 21:29:00,69.1,69.1,29.93,SSW,212,0.0,0.0,100,0.00,,SKC,0.82,VWS V14.01,2013-08-23 01:29:00,
2013-08-22 21:34:00,69.0,69.0,29.93,SSW,212,0.0,0.0,100,0.00,,SKC,0.82,VWS V14.01,2013-08-23 01:34:00,
2013-08-22 21:39:00,69.0,69.0,29.93,SSW,212,0.0,0.0,100,0.00,,SKC,0.82,VWS V14.01,2013-08-23 01:39:00,
2013-08-22 21:44:00,68.8,68.8,29.93,SSW,212,0.0,0.0,100,0.00,,SKC,0.82,VWS V14.01,2013-08-23 01:44:00,
2013-08-22 21:49:00,68.7,68.7,29.92,SSW,212,0.0,0.0,100,0.00,,SKC,0.82,VWS V14.01,2013-08-23 01:49:00,
2013-08-22 21:54:00,68.6,68.6,29.92,SSW,212,0.0,0.0,100,0.00,,SKC,0.82,VWS V14.01,2013-08-23 01:54:00,
2013-08-22 21:59:00,68.5,68.5,29.92,SSW,212,0.0,0.0,100,0.00,,SKC,0.82,VWS V14.01,2013-08-23 01:59:00,
2013-08-22 22:04:00,68.5,68.5,29.92,SSW,212,0.0,0.0,100,0.00,,SKC,0.82,VWS V14.01,2013-08-23 02:04:00,
2013-08-22 22:09:00,68.4,68.4,29.91,SSW,212,0.0,0.0,100,0.00,,SKC,0.82,VWS V14.01,2013-08-23 02:09:00,
2013-08-22 22:14:00,68.3,68.3,29.91,SSW,212,0.0,0.0,100,0.00,,SKC,0.82,VWS V14.01,2013-08-23 02:14:00,
2013-08-22 22:19:00,68.2,68.2,29.92,SSW,212,0.0,0.0,100,0.00,,SKC,0.82,VWS V14.01,2013-08-23 02:19:00,
2013-08-22 22:24:00,68.1,68.1,29.92,SSW,212,0.0,0.0,100,0.00,,SKC,0.82,VWS V14.01,2013-08-23 02:24:00,
2013-08-22 22:29:00,68.1,68.1,29.92,SSW,212,0.0,0.0,100,0.00,,SKC,0.82,VWS V14.01,2013-08-23 02:29:00,
2013-08-22 22:34:00,67.9,67.9,29.91,SSW,212,0.0,0.0,100,0.00,,SKC,0.82,VWS V14.01,2013-08-23 02:34:00,
2013-08-22 22:39:00,67.8,67.8,29.90,SSW,212,0.0,0.0,100,0.00,,SKC,0.82,VWS V14.01,2013-08-23 02:39:00,
2013-08-22 22:44:00,67.8,67.8,29.91,SSW,212,0.0,0.0,100,0.00,,SKC,0.82,VWS V14.01,2013-08-23 02:44:00,
2013-08-22 22:49:00,67.7,67.7,29.91,SSW,212,0.0,0.0,100,0.00,,SKC,0.82,VWS V14.01,2013-08-23 02:49:00,
2013-08-22 22:54:00,67.7,67.7,29.91,SSW,212,0.0,0.0,100,0.00,,SKC,0.82,VWS V14.01,2013-08-23 02:54:00,
2013-08-22 23:00:00,67.5,67.5,29.90,SSW,212,0.0,0.0,100,0.00,,SKC,0.82,VWS V14.01,2013-08-23 03:00:00,
2013-08-22 23:05:00,67.4,67.4,29.90,SSW,212,0.0,0.0,100,0.00,,SKC,0.82,VWS V14.01,2013-08-23 03:05:00,
2013-08-22 23:10:00,67.3,67.3,29.90,SSW,212,0.0,0.0,100,0.00,,SKC,0.82,VWS V14.01,2013-08-23 03:10:00,
2013-08-22 23:15:00,67.3,67.3,29.91,SSW,212,0.0,0.0,100,0.00,,SKC,0.82,VWS V14.01,2013-08-23 03:15:00,
2013-08-22 23:20:00,67.3,67.3,29.91,SSW,212,0.0,0.0,100,0.00,,SKC,0.82,VWS V14.01,2013-08-23 03:20:00,
2013-08-22 23:25:00,67.2,67.2,29.89,SSW,212,0.0,0.0,100,0.00,,SKC,0.82,VWS V14.01,2013-08-23 03:25:00,
2013-08-22 23:30:00,67.2,67.2,29.90,SSW,212,0.0,0.0,100,0.00,,SKC,0.82,VWS V14.01,2013-08-23 03:30:00,
2013-08-22 23:35:00,67.1,67.1,29.91,SSW,212,0.0,0.0,100,0.00,,SKC,0.82,VWS V14.01,2013-08-23 03:35:00,
2013-08-22 23:40:00,67.1,67.1,29.91,SSW,212,0.0,0.0,100,0.00,,SKC,0.82,VWS V14.01,2013-08-23 03:40:00,
2013-08-22 23:45:00,67.3,67.3,29.90,SSW,212,0.0,0.0,100,0.00,,SKC,0.82,VWS V14.01,2013-08-23 03:45:00,
2013-08-22 23:51:00,67.4,67.4,29.89,SSW,212,0.0,0.0,100,0.00,,SKC,0.82,VWS V14.01,2013-08-23 03:51:00,
2013-08-22 23:56:00,67.4,67.4,29.90,SSW,212,0.0,0.0,100,0.00,,SKC,0.82,VWS V14.01,2013-08-23 03:56:00,